Time;durP1;ratioP1;P1;durP2;ratioP2;P2;SDS_P1;SDS_P2;PMS_P1;PMS_P2;Temp;Humidity;BMP_temperature;BMP_pressure;BME280_temperature;BME280_humidity;BME280_pressure;Samples;Min_cycle;Max_cycle;Signal;HPM_P1;HPM_P2
2022/08/19 00:02:21;;;;;;;1.90;1.80;;;28.90;50.60;;;;;;5022367;28;87048;-52
2022/08/19 00:04:52;;;;;;;2.47;1.30;;;28.90;50.50;;;;;;5021548;28;89234;-52
2022/08/19 00:07:21;;;;;;;3.90;1.50;;;28.90;50.50;;;;;;5021485;28;88748;-53
2022/08/19 00:09:49;;;;;;;1.67;1.40;;;28.90;50.60;;;;;;5021108;28;86903;-53
2022/08/19 00:12:19;;;;;;;1.60;1.20;;;28.90;50.60;;;;;;5022049;28;87064;-52
2022/08/19 00:14:47;;;;;;;1.50;1.40;;;28.90;50.60;;;;;;5021523;28;90104;-51
2022/08/19 00:17:15;;;;;;;4.33;1.30;;;28.90;50.60;;;;;;5021607;28;90073;-52
2022/08/19 00:19:43;;;;;;;2.13;1.87;;;28.80;50.50;;;;;;5021042;28;87099;-53
2022/08/19 00:22:11;;;;;;;2.77;1.50;;;28.80;50.50;;;;;;5028177;27;87014;-52
2022/08/19 00:24:41;;;;;;;3.20;1.07;;;28.80;50.50;;;;;;5062112;27;88114;-51
2022/08/19 00:27:17;;;;;;;3.33;2.03;;;28.90;50.60;;;;;;5061841;27;87420;-51
2022/08/19 00:29:53;;;;;;;2.87;1.40;;;28.90;50.60;;;;;;5061644;27;86952;-51
2022/08/19 00:32:21;;;;;;;1.10;1.00;;;28.90;50.60;;;;;;5062345;27;86289;-51
2022/08/19 00:34:52;;;;;;;1.70;1.10;;;28.80;50.50;;;;;;5061749;27;87837;-51
2022/08/19 00:37:22;;;;;;;2.10;1.47;;;28.90;50.50;;;;;;5061316;27;87756;-52
2022/08/19 00:39:51;;;;;;;2.27;1.73;;;28.80;50.50;;;;;;5061745;27;88932;-52
2022/08/19 00:42:20;;;;;;;2.87;1.37;;;28.80;50.50;;;;;;5062028;27;86872;-51
2022/08/19 00:44:48;;;;;;;2.20;1.47;;;28.80;50.50;;;;;;5062075;27;88153;-53
2022/08/19 00:47:16;;;;;;;1.33;1.17;;;28.80;50.50;;;;;;5061828;27;88910;-52
2022/08/19 00:49:50;;;;;;;2.67;1.30;;;28.80;50.50;;;;;;5062095;27;86933;-53
2022/08/19 00:52:22;;;;;;;1.97;1.27;;;28.80;50.50;;;;;;5061552;27;87041;-53
2022/08/19 00:54:52;;;;;;;2.33;1.23;;;28.80;50.50;;;;;;5061195;27;86965;-53
2022/08/19 00:57:22;;;;;;;2.20;1.10;;;28.80;50.50;;;;;;5062071;27;87827;-52
2022/08/19 00:59:51;;;;;;;2.13;1.10;;;28.80;50.50;;;;;;5062130;27;86863;-53
2022/08/19 01:02:29;;;;;;;1.30;1.20;;;28.80;50.50;;;;;;5061945;27;86970;-53
2022/08/19 01:04:56;;;;;;;1.70;1.00;;;28.80;50.60;;;;;;5061053;27;89157;-52
2022/08/19 01:07:24;;;;;;;0.83;0.83;;;28.80;50.50;;;;;;5061124;27;89841;-52
2022/08/19 01:09:54;;;;;;;2.17;1.20;;;28.80;51.10;;;;;;5061371;27;86938;-52
2022/08/19 01:12:22;;;;;;;2.27;1.30;;;28.80;50.50;;;;;;5061469;27;86940;-52
2022/08/19 01:14:50;;;;;;;1.70;1.60;;;28.80;50.60;;;;;;5061228;27;89661;-51
2022/08/19 01:17:18;;;;;;;0.80;0.80;;;28.70;50.60;;;;;;5061302;27;87843;-52
2022/08/19 01:19:47;;;;;;;1.37;1.13;;;28.70;50.60;;;;;;5061192;27;87042;-52
2022/08/19 01:22:17;;;;;;;1.43;1.10;;;28.70;50.60;;;;;;5061609;27;86300;-52
2022/08/19 01:24:54;;;;;;;2.40;1.23;;;28.70;50.60;;;;;;5061740;27;87135;-53
2022/08/19 01:27:23;;;;;;;1.63;1.43;;;28.70;50.60;;;;;;5061221;27;88811;-51
2022/08/19 01:29:51;;;;;;;2.87;1.10;;;28.70;50.70;;;;;;5060900;27;87997;-53
2022/08/19 01:32:20;;;;;;;1.57;1.10;;;28.70;50.70;;;;;;5064258;27;86923;-52
2022/08/19 01:35:02;;;;;;;3.23;1.13;;;28.70;50.70;;;;;;5065062;27;89154;-51
2022/08/19 01:37:31;;;;;;;2.67;1.40;;;28.70;50.70;;;;;;5064048;27;88898;-52
2022/08/19 01:40:00;;;;;;;2.73;1.43;;;28.70;50.80;;;;;;5064115;27;86995;-51
2022/08/19 01:42:33;;;;;;;1.80;1.50;;;28.70;50.80;;;;;;5065118;27;87169;-51
2022/08/19 01:45:01;;;;;;;2.13;1.33;;;28.70;50.80;;;;;;5064681;27;87069;-52
2022/08/19 01:47:29;;;;;;;2.93;1.60;;;28.70;50.80;;;;;;5065548;27;89123;-52
2022/08/19 01:49:57;;;;;;;2.33;1.67;;;28.70;50.80;;;;;;5064941;27;87110;-51
2022/08/19 01:52:25;;;;;;;2.90;1.60;;;28.60;50.80;;;;;;5064883;27;87125;-52
2022/08/19 01:54:53;;;;;;;3.23;2.23;;;28.70;50.90;;;;;;5063694;27;90106;-52
2022/08/19 01:57:22;;;;;;;3.37;1.83;;;28.60;50.90;;;;;;5064493;27;89906;-52
2022/08/19 01:59:50;;;;;;;2.43;1.53;;;28.60;50.90;;;;;;5064792;27;87101;-52
2022/08/19 02:02:18;;;;;;;2.53;1.87;;;28.60;50.90;;;;;;5064508;27;86975;-51
2022/08/19 02:04:47;;;;;;;2.30;1.67;;;28.60;50.90;;;;;;5063908;27;89105;-52
2022/08/19 02:07:15;;;;;;;3.53;2.00;;;28.60;51.00;;;;;;5064156;27;87758;-52
2022/08/19 02:09:43;;;;;;;3.63;2.33;;;28.60;51.00;;;;;;5063949;27;87037;-51
2022/08/19 02:12:11;;;;;;;5.00;2.43;;;28.60;51.00;;;;;;5064919;27;86207;-52
2022/08/19 02:14:40;;;;;;;4.03;2.90;;;28.60;51.00;;;;;;5064324;27;89342;-52
2022/08/19 02:17:08;;;;;;;3.63;2.63;;;28.60;51.70;;;;;;5063957;27;86944;-52
2022/08/19 02:19:36;;;;;;;4.77;2.20;;;28.50;51.00;;;;;;5063888;27;87886;-52
2022/08/19 02:22:08;;;;;;;3.17;2.03;;;28.60;51.10;;;;;;5064402;27;86919;-52
2022/08/19 02:24:36;;;;;;;3.87;2.40;;;28.50;51.70;;;;;;5063789;27;88472;-53
2022/08/19 02:27:05;;;;;;;3.80;2.43;;;28.50;51.10;;;;;;5064001;27;89004;-52
2022/08/19 02:29:33;;;;;;;3.63;2.30;;;28.50;51.10;;;;;;5064478;27;86739;-52
2022/08/19 02:32:04;;;;;;;4.37;2.93;;;28.50;51.20;;;;;;5064336;27;87038;-52
2022/08/19 02:34:32;;;;;;;5.87;2.97;;;28.50;51.20;;;;;;5063777;27;89346;-52
2022/08/19 02:36:59;;;;;;;6.17;3.10;;;28.50;51.20;;;;;;5064024;27;88825;-52
2022/08/19 02:39:29;;;;;;;3.43;2.57;;;28.50;51.10;;;;;;5064165;27;87087;-52
2022/08/19 02:41:59;;;;;;;3.33;2.33;;;28.50;51.10;;;;;;5063052;27;87089;-52
2022/08/19 02:44:28;;;;;;;4.00;2.37;;;28.50;51.10;;;;;;5061419;27;89152;-52
2022/08/19 02:46:58;;;;;;;4.40;2.47;;;28.50;51.10;;;;;;5061710;27;88749;-52
2022/08/19 02:49:28;;;;;;;3.60;2.10;;;28.50;51.10;;;;;;5061547;27;87132;-52
2022/08/19 02:52:01;;;;;;;4.00;2.43;;;28.50;51.10;;;;;;5062524;27;87139;-52
2022/08/19 02:54:30;;;;;;;4.83;2.20;;;28.50;51.10;;;;;;5062471;27;89295;-52
2022/08/19 02:56:58;;;;;;;4.10;2.60;;;28.50;51.10;;;;;;5063796;27;86969;-52
2022/08/19 02:59:26;;;;;;;3.43;2.60;;;28.50;51.10;;;;;;5063912;27;87077;-52
2022/08/19 03:01:54;;;;;;;3.33;2.67;;;28.50;51.10;;;;;;5063768;27;86187;-53
2022/08/19 03:04:22;;;;;;;4.97;2.93;;;28.50;51.10;;;;;;5063261;27;89137;-51
2022/08/19 03:06:52;;;;;;;6.23;2.93;;;28.50;51.10;;;;;;5063064;27;88966;-51
2022/08/19 03:09:20;;;;;;;3.93;3.20;;;28.50;51.10;;;;;;5062807;27;88000;-52
2022/08/19 03:11:48;;;;;;;4.50;3.23;;;28.50;51.10;;;;;;5063343;27;86964;-52
2022/08/19 03:14:19;;;;;;;9.00;3.80;;;28.50;51.10;;;;;;5063267;27;88071;-52
2022/08/19 03:16:49;;;;;;;5.13;3.83;;;28.50;51.70;;;;;;5063386;27;88909;-52
2022/08/19 03:19:18;;;;;;;5.23;3.03;;;28.50;51.10;;;;;;5063162;27;87017;-52
2022/08/19 03:21:46;;;;;;;5.73;3.63;;;28.50;51.10;;;;;;5063242;27;86893;-52
2022/08/19 03:24:16;;;;;;;8.00;3.07;;;28.50;51.10;;;;;;5062740;27;89266;-52
2022/08/19 03:26:45;;;;;;;5.73;3.47;;;28.50;51.10;;;;;;5063398;27;88878;-52
2022/08/19 03:29:13;;;;;;;5.43;3.23;;;28.50;51.10;;;;;;5063406;27;87097;-53
2022/08/19 03:31:42;;;;;;;5.50;3.07;;;28.50;51.20;;;;;;5063161;27;87019;-52
2022/08/19 03:34:21;;;;;;;8.90;4.20;;;28.40;51.10;;;;;;5062348;27;89105;-52
2022/08/19 03:36:49;;;;;;;6.10;3.17;;;28.40;51.10;;;;;;5062648;27;89881;-52
2022/08/19 03:39:19;;;;;;;4.97;3.80;;;28.40;51.10;;;;;;5062518;27;86761;-52
2022/08/19 03:41:49;;;;;;;6.73;4.00;;;28.40;51.20;;;;;;5062903;27;87033;-52
2022/08/19 03:44:38;;;;;;;5.87;3.00;;;28.40;51.20;;;;;;5062983;27;90341;-52
2022/08/19 03:47:06;;;;;;;6.03;3.40;;;28.40;51.20;;;;;;5063246;27;89017;-52
2022/08/19 03:49:36;;;;;;;4.20;2.90;;;28.40;51.20;;;;;;5063017;27;87014;-51
2022/08/19 03:52:07;;;;;;;3.93;2.77;;;28.40;51.20;;;;;;5063568;27;86321;-52
2022/08/19 03:54:37;;;;;;;5.17;2.63;;;28.40;51.20;;;;;;5061439;27;89012;-51
2022/08/19 03:57:05;;;;;;;4.07;2.90;;;28.40;51.10;;;;;;5062627;27;87832;-52
2022/08/19 03:59:35;;;;;;;4.50;3.00;;;28.40;51.10;;;;;;5062244;27;87981;-52
2022/08/19 04:02:07;;;;;;;4.17;2.70;;;28.40;51.10;;;;;;5062614;27;86888;-52
2022/08/19 04:04:35;;;;;;;5.97;2.97;;;28.40;51.10;;;;;;5061898;27;88262;-52
2022/08/19 04:07:03;;;;;;;6.10;3.23;;;28.40;51.00;;;;;;5061792;27;88797;-51
2022/08/19 04:09:32;;;;;;;4.97;3.40;;;28.40;51.00;;;;;;5062228;27;86846;-52
2022/08/19 04:12:01;;;;;;;6.13;2.93;;;28.40;51.00;;;;;;5062092;27;86956;-53
2022/08/19 04:14:30;;;;;;;6.10;3.07;;;28.40;51.00;;;;;;5062058;27;88184;-52
2022/08/19 04:16:58;;;;;;;3.13;2.73;;;28.40;51.00;;;;;;5062242;27;88809;-51
2022/08/19 04:19:26;;;;;;;4.13;2.60;;;28.40;51.00;;;;;;5062300;27;87005;-52
2022/08/19 04:21:54;;;;;;;6.17;3.13;;;28.40;51.00;;;;;;5062364;27;87029;-52
2022/08/19 04:24:23;;;;;;;4.40;2.80;;;28.40;50.90;;;;;;5060747;27;90166;-52
2022/08/19 04:26:51;;;;;;;6.27;2.60;;;28.30;50.80;;;;;;5061855;27;90343;-51
2022/08/19 04:29:24;;;;;;;4.17;2.30;;;28.30;50.80;;;;;;5062377;27;87074;-51
2022/08/19 04:31:53;;;;;;;5.80;2.90;;;28.30;50.80;;;;;;5062265;27;87092;-51
2022/08/19 04:34:23;;;;;;;6.20;3.87;;;28.30;50.80;;;;;;5061980;27;89214;-51
2022/08/19 04:36:51;;;;;;;4.17;2.43;;;28.30;50.80;;;;;;5061919;27;87901;-53
2022/08/19 04:39:20;;;;;;;3.10;2.27;;;28.30;50.80;;;;;;5061545;27;87310;-52
2022/08/19 04:44:35;;;;;;;4.20;2.90;;;28.30;51.50;;;;;;5061903;27;89016;-52
2022/08/19 04:47:13;;;;;;;6.93;3.00;;;28.30;50.90;;;;;;5049953;27;88834;-52
2022/08/19 04:49:41;;;;;;;6.17;2.60;;;28.30;50.90;;;;;;5040567;28;89809;-52
2022/08/19 04:52:09;;;;;;;8.17;2.50;;;28.30;50.90;;;;;;5041976;28;87027;-51
2022/08/19 04:54:37;;;;;;;4.20;2.03;;;28.30;50.90;;;;;;5042140;27;89205;-53
2022/08/19 04:57:08;;;;;;;10.40;2.93;;;28.30;51.60;;;;;;5059714;27;88870;-52
2022/08/19 04:59:37;;;;;;;4.20;2.97;;;28.20;50.90;;;;;;5050843;27;88047;-52
2022/08/19 05:02:05;;;;;;;3.93;2.30;;;28.30;51.00;;;;;;5041073;28;87180;-52
2022/08/19 05:04:35;;;;;;;5.40;2.33;;;28.30;51.00;;;;;;5041112;27;89243;-53
2022/08/19 05:07:03;;;;;;;5.50;2.77;;;28.30;51.00;;;;;;5044714;28;87776;-53
2022/08/19 05:09:31;;;;;;;3.23;2.53;;;28.30;51.00;;;;;;5044539;28;87016;-51
2022/08/19 05:12:19;;;;;;;3.37;2.40;;;28.30;51.00;;;;;;5044585;28;87134;-51
2022/08/19 05:14:49;;;;;;;3.47;1.90;;;28.30;51.00;;;;;;5044174;28;89155;-51
2022/08/19 05:17:17;;;;;;;4.83;2.57;;;28.30;51.60;;;;;;5044103;28;88875;-51
2022/08/19 05:22:52;;;;;;;3.40;2.23;;;28.30;50.90;;;;;;5044403;28;87012;-52
2022/08/19 05:25:21;;;;;;;4.77;2.97;;;28.30;50.90;;;;;;5044536;28;88050;-51
2022/08/19 05:27:49;;;;;;;5.63;2.53;;;28.30;51.00;;;;;;5044261;28;88936;-51
2022/08/19 05:30:19;;;;;;;9.07;2.87;;;28.30;51.00;;;;;;5044681;28;86744;-51
2022/08/19 05:33:07;;;;;;;2.83;1.93;;;28.30;51.00;;;;;;5044613;28;86381;-52
2022/08/19 05:35:37;;;;;;;5.50;2.57;;;28.20;50.80;;;;;;5044202;28;89078;-51
2022/08/19 05:38:07;;;;;;;3.73;2.83;;;28.30;51.00;;;;;;5043688;28;88928;-52
2022/08/19 05:40:35;;;;;;;6.23;2.33;;;28.30;51.00;;;;;;5043733;28;88027;-51
2022/08/19 05:43:04;;;;;;;3.87;2.27;;;28.30;51.00;;;;;;5044233;28;87010;-51
2022/08/19 05:45:33;;;;;;;3.20;1.73;;;28.30;50.90;;;;;;5044099;28;89187;-51
2022/08/19 05:48:01;;;;;;;3.73;2.13;;;28.30;50.80;;;;;;5043880;28;88959;-52
2022/08/19 05:50:29;;;;;;;4.73;2.17;;;28.30;50.90;;;;;;5044446;28;87033;-52
2022/08/19 05:52:57;;;;;;;6.63;1.80;;;28.30;50.80;;;;;;5043463;28;87094;-52
2022/08/19 05:55:25;;;;;;;4.10;1.87;;;28.30;50.80;;;;;;5042560;28;88106;-53
2022/08/19 05:57:53;;;;;;;6.10;2.53;;;28.30;50.80;;;;;;5044367;28;88909;-51
2022/08/19 06:00:21;;;;;;;2.53;2.33;;;28.30;50.90;;;;;;5044425;28;86950;-51
2022/08/19 06:02:54;;;;;;;7.33;2.30;;;28.30;51.00;;;;;;5043333;28;87179;-52
2022/08/19 06:05:22;;;;;;;4.37;2.13;;;28.30;50.80;;;;;;5042896;28;89017;-51
2022/08/19 06:07:50;;;;;;;3.03;2.13;;;28.30;50.80;;;;;;5043734;28;88947;-51
2022/08/19 06:10:18;;;;;;;5.27;2.93;;;28.30;50.80;;;;;;5043412;28;86983;-51
2022/08/19 06:12:46;;;;;;;3.77;2.40;;;28.30;50.80;;;;;;5043225;28;87139;-54
2022/08/19 06:15:14;;;;;;;3.33;1.53;;;28.30;50.70;;;;;;5043427;28;88183;-53
2022/08/19 06:17:44;;;;;;;3.37;1.97;;;28.30;50.70;;;;;;5025176;28;87832;-53
2022/08/19 06:20:15;;;;;;;5.73;2.27;;;28.30;50.70;;;;;;5042092;28;87913;-53
2022/08/19 06:22:43;;;;;;;3.73;1.87;;;28.30;50.80;;;;;;5042018;28;87057;-53
2022/08/19 06:25:12;;;;;;;3.03;1.93;;;28.30;50.80;;;;;;5042681;28;88276;-53
2022/08/19 06:27:40;;;;;;;5.17;2.20;;;28.30;50.80;;;;;;5042750;28;88015;-53
2022/08/19 06:30:28;;;;;;;2.57;2.10;;;28.30;50.80;;;;;;5042418;28;88033;-53
2022/08/19 06:32:56;;;;;;;2.83;1.70;;;28.30;50.80;;;;;;5043459;28;86944;-53
2022/08/19 06:35:25;;;;;;;8.07;2.37;;;28.30;50.80;;;;;;5042712;28;88198;-56
2022/08/19 06:37:53;;;;;;;2.60;2.07;;;28.30;50.80;;;;;;5042905;28;89008;-54
2022/08/19 06:40:21;;;;;;;2.60;2.10;;;28.30;50.80;;;;;;5043311;28;87135;-55
2022/08/19 06:42:49;;;;;;;5.07;2.47;;;28.30;50.90;;;;;;5043229;28;87124;-53
2022/08/19 06:45:22;;;;;;;2.87;1.83;;;28.40;51.00;;;;;;5042447;28;87077;-53
2022/08/19 06:47:54;;;;;;;5.67;2.10;;;28.40;51.00;;;;;;5042829;28;89038;-53
2022/08/19 06:50:22;;;;;;;3.63;1.80;;;28.40;51.00;;;;;;5043059;28;87038;-53
2022/08/19 06:52:53;;;;;;;3.37;2.07;;;28.40;51.10;;;;;;5042262;28;87023;-53
2022/08/19 06:55:22;;;;;;;5.67;2.43;;;28.40;51.10;;;;;;5042517;28;89004;-54
2022/08/19 06:57:52;;;;;;;7.53;2.43;;;28.40;51.10;;;;;;5043003;28;87617;-54
2022/08/19 07:00:21;;;;;;;7.63;2.60;;;28.40;51.20;;;;;;5043193;28;87028;-53
2022/08/19 07:02:49;;;;;;;2.40;2.20;;;28.40;51.20;;;;;;5042686;28;87148;-53
2022/08/19 07:05:26;;;;;;;4.03;2.40;;;28.40;51.30;;;;;;5043227;28;87942;-53
2022/08/19 07:07:56;;;;;;;4.30;2.63;;;28.30;51.30;;;;;;5042389;28;88863;-54
2022/08/19 07:10:32;;;;;;;5.93;2.07;;;28.30;51.50;;;;;;5041895;28;87786;-51
2022/08/19 07:13:01;;;;;;;6.53;2.27;;;28.30;51.50;;;;;;5043421;27;86422;-52
2022/08/19 07:15:30;;;;;;;3.97;2.03;;;28.40;51.60;;;;;;5041190;28;89217;-51
2022/08/19 07:17:58;;;;;;;6.07;3.37;;;28.30;51.60;;;;;;5040570;28;89463;-52
2022/08/19 07:20:26;;;;;;;11.93;4.20;;;28.40;51.70;;;;;;5042447;28;88070;-52
2022/08/19 07:22:56;;;;;;;11.57;6.37;;;28.40;51.80;;;;;;5042493;28;87762;-51
2022/08/19 07:25:24;;;;;;;14.07;7.67;;;28.40;51.90;;;;;;5039699;28;88658;-51
2022/08/19 07:28:00;;;;;;;14.53;7.73;;;28.40;52.00;;;;;;5042249;27;89272;-51
2022/08/19 07:30:28;;;;;;;15.83;7.30;;;28.40;52.00;;;;;;5042457;28;87057;-51
2022/08/19 07:32:58;;;;;;;14.30;5.43;;;28.40;52.10;;;;;;5042423;28;86980;-51
2022/08/19 07:35:31;;;;;;;14.67;5.47;;;28.30;52.10;;;;;;5042680;28;87804;-52
2022/08/19 07:38:03;;;;;;;7.70;4.47;;;28.30;52.20;;;;;;5042786;28;88114;-52
2022/08/19 07:40:31;;;;;;;9.40;4.13;;;28.30;52.30;;;;;;5042845;28;87198;-52
2022/08/19 07:42:59;;;;;;;5.77;3.60;;;28.30;52.30;;;;;;5042623;28;87055;-52
2022/08/19 07:45:28;;;;;;;7.67;3.73;;;28.30;52.40;;;;;;5042241;28;90119;-52
2022/08/19 07:47:56;;;;;;;10.20;4.27;;;28.30;52.50;;;;;;5042375;28;88899;-52
2022/08/19 07:50:24;;;;;;;5.60;2.80;;;28.30;52.50;;;;;;5042547;28;86867;-52
2022/08/19 07:52:52;;;;;;;6.57;3.10;;;28.30;52.50;;;;;;5042623;28;87103;-52
2022/08/19 07:55:23;;;;;;;8.77;3.87;;;28.30;52.50;;;;;;5042342;28;89111;-52
2022/08/19 07:58:10;;;;;;;7.03;2.70;;;28.30;52.60;;;;;;5042315;28;87855;-52
2022/08/19 08:00:38;;;;;;;4.77;2.47;;;28.30;52.60;;;;;;5042504;28;87016;-52
2022/08/19 08:03:08;;;;;;;3.63;2.13;;;28.30;52.80;;;;;;5042350;28;86954;-54
2022/08/19 08:11:13;;;;;;;3.47;2.70;;;28.30;52.90;;;;;;5041310;28;88905;-53
2022/08/19 08:13:42;;;;;;;8.50;2.13;;;28.30;52.90;;;;;;5042022;28;87050;-54
2022/08/19 08:16:10;;;;;;;4.40;2.63;;;28.30;53.00;;;;;;5041599;28;89138;-54
2022/08/19 08:18:43;;;;;;;4.27;2.40;;;28.20;52.90;;;;;;5041879;28;88673;-52
2022/08/19 08:21:20;;;;;;;5.77;2.57;;;28.30;53.00;;;;;;5041961;28;87120;-53
2022/08/19 08:23:48;;;;;;;4.20;2.00;;;28.30;53.00;;;;;;5041618;28;87099;-51
2022/08/19 08:26:20;;;;;;;3.10;2.30;;;28.30;53.00;;;;;;5041753;28;89197;-51
2022/08/19 08:28:48;;;;;;;3.40;1.73;;;28.40;53.00;;;;;;5041648;28;88844;-51
2022/08/19 08:31:18;;;;;;;4.43;2.57;;;28.40;53.10;;;;;;5041665;28;86864;-51
2022/08/19 08:33:47;;;;;;;2.90;1.83;;;28.40;53.10;;;;;;5041653;28;86946;-52
2022/08/19 08:36:15;;;;;;;3.07;1.77;;;28.40;53.10;;;;;;5040591;28;90406;-51
2022/08/19 08:38:45;;;;;;;5.37;2.20;;;28.40;53.10;;;;;;5041021;28;90085;-53
2022/08/19 08:41:19;;;;;;;3.47;1.77;;;28.40;53.20;;;;;;5041155;28;86938;-51
2022/08/19 08:43:52;;;;;;;3.67;1.63;;;28.40;53.20;;;;;;5041379;28;87080;-52
2022/08/19 08:46:25;;;;;;;5.03;2.70;;;28.40;53.80;;;;;;5040843;28;87224;-51
2022/08/19 08:49:03;;;;;;;2.93;1.70;;;28.40;53.20;;;;;;5041305;28;87709;-52
2022/08/19 08:51:35;;;;;;;3.23;1.70;;;28.40;53.10;;;;;;5041937;28;86857;-51
2022/08/19 08:54:06;;;;;;;3.07;1.50;;;28.40;53.80;;;;;;5041149;28;86170;-51
2022/08/19 08:56:38;;;;;;;3.23;1.10;;;28.50;53.20;;;;;;5040041;28;88011;-51
2022/08/19 08:59:10;;;;;;;1.90;1.57;;;28.40;53.10;;;;;;5040818;28;88928;-52
2022/08/19 09:01:39;;;;;;;4.07;1.87;;;28.40;53.20;;;;;;5040610;28;87974;-51
2022/08/19 09:04:07;;;;;;;1.83;1.50;;;28.40;53.20;;;;;;5041151;28;87505;-52
2022/08/19 09:06:39;;;;;;;2.40;1.90;;;28.40;53.10;;;;;;5040846;28;89110;-51
2022/08/19 09:09:14;;;;;;;5.23;2.67;;;28.50;53.20;;;;;;5041069;28;88869;-52
2022/08/19 09:11:51;;;;;;;3.03;1.77;;;28.50;53.20;;;;;;5041371;28;86911;-52
2022/08/19 09:14:29;;;;;;;3.43;1.60;;;28.40;53.10;;;;;;5041023;28;87039;-52
2022/08/19 09:17:17;;;;;;;2.53;1.60;;;28.40;53.10;;;;;;5041055;28;87690;-52
2022/08/19 09:19:53;;;;;;;3.67;1.73;;;28.50;53.20;;;;;;5041075;28;88672;-51
2022/08/19 09:22:22;;;;;;;3.33;1.67;;;28.50;53.20;;;;;;5041263;28;86904;-52
2022/08/19 09:24:54;;;;;;;1.70;1.53;;;28.50;53.20;;;;;;5040906;28;87020;-52
2022/08/19 09:27:23;;;;;;;2.53;1.60;;;28.40;53.10;;;;;;5039986;28;87882;-52
2022/08/19 09:30:15;;;;;;;1.90;1.53;;;28.50;53.20;;;;;;5040207;28;90910;-52
2022/08/19 09:32:44;;;;;;;1.47;1.37;;;28.40;53.10;;;;;;5041241;28;87022;-52
2022/08/19 09:35:13;;;;;;;1.97;1.63;;;28.50;53.10;;;;;;5040714;28;87131;-52
2022/08/19 09:37:42;;;;;;;2.80;1.30;;;28.50;53.10;;;;;;5040278;28;89113;-52
2022/08/19 09:40:11;;;;;;;2.20;1.40;;;28.40;53.00;;;;;;5040514;28;87794;-52
2022/08/19 09:42:40;;;;;;;2.17;1.53;;;28.50;53.00;;;;;;5041282;28;87061;-52
2022/08/19 09:45:21;;;;;;;1.07;0.97;;;28.50;53.00;;;;;;5038756;28;86689;-51
2022/08/19 09:47:50;;;;;;;1.30;1.20;;;28.50;53.00;;;;;;5040413;28;88978;-52
2022/08/19 09:50:22;;;;;;;1.30;1.20;;;28.50;53.00;;;;;;5040062;28;87811;-53
2022/08/19 09:52:52;;;;;;;1.40;1.30;;;28.50;53.00;;;;;;5042035;28;87914;-51
2022/08/19 09:55:24;;;;;;;2.77;1.20;;;28.50;53.00;;;;;;5042842;28;87935;-51
2022/08/19 09:58:01;;;;;;;3.30;1.63;;;28.50;52.90;;;;;;5056243;27;88094;-53
2022/08/19 10:00:31;;;;;;;1.27;1.20;;;28.50;52.90;;;;;;5064198;27;87686;-51
2022/08/19 10:02:59;;;;;;;2.07;1.30;;;28.50;53.00;;;;;;5064327;27;86786;-52
2022/08/19 10:08:16;;;;;;;1.50;1.30;;;28.50;52.90;;;;;;5064258;27;89087;-52
2022/08/19 10:10:44;;;;;;;1.83;1.20;;;28.50;52.90;;;;;;5064113;27;89050;-52
2022/08/19 10:13:13;;;;;;;2.40;1.33;;;28.50;52.90;;;;;;5064521;27;87069;-52
2022/08/19 10:15:43;;;;;;;1.10;0.93;;;28.50;52.80;;;;;;5063823;27;87033;-52
2022/08/19 10:18:16;;;;;;;1.27;1.17;;;28.50;52.80;;;;;;5063707;27;90033;-52
2022/08/19 10:20:45;;;;;;;2.80;1.40;;;28.50;52.70;;;;;;5064233;27;89950;-52
2022/08/19 10:23:18;;;;;;;4.10;1.03;;;28.60;52.70;;;;;;5064381;27;87042;-52
2022/08/19 10:25:47;;;;;;;1.43;0.90;;;28.60;52.70;;;;;;5063268;27;87123;-51
2022/08/19 10:28:16;;;;;;;1.03;1.00;;;28.60;52.60;;;;;;5062730;27;88316;-52
2022/08/19 10:30:48;;;;;;;1.43;1.23;;;28.60;52.60;;;;;;5063062;27;87969;-51
2022/08/19 10:33:16;;;;;;;2.13;1.10;;;28.60;52.60;;;;;;5063302;27;86882;-51
2022/08/19 10:36:05;;;;;;;1.10;0.97;;;28.60;52.60;;;;;;5062976;27;86324;-52
2022/08/19 10:38:33;;;;;;;0.90;0.73;;;28.60;52.60;;;;;;5063101;27;88179;-52
2022/08/19 10:41:08;;;;;;;1.20;1.10;;;28.60;52.50;;;;;;5063264;27;89066;-53
2022/08/19 10:43:38;;;;;;;1.00;0.90;;;28.60;53.20;;;;;;5063348;27;87997;-52
2022/08/19 10:46:07;;;;;;;1.73;1.10;;;28.60;52.50;;;;;;5063451;27;86963;-52
2022/08/19 10:48:43;;;;;;;0.70;0.70;;;28.60;52.50;;;;;;5063569;27;89117;-53
2022/08/19 10:54:15;;;;;;;1.30;0.60;;;28.60;52.50;;;;;;4980539;28;87174;-52
2022/08/19 10:56:56;;;;;;;1.30;1.00;;;28.60;52.50;;;;;;4979896;28;87184;-52
2022/08/19 10:59:28;;;;;;;2.47;0.80;;;28.60;52.50;;;;;;5028149;27;87680;-52
2022/08/19 11:02:05;;;;;;;0.60;0.60;;;28.60;52.50;;;;;;5062778;27;87210;-52
2022/08/19 11:04:33;;;;;;;1.80;0.77;;;28.60;52.50;;;;;;5062511;27;87073;-52
2022/08/19 11:07:03;;;;;;;0.80;0.73;;;28.60;52.40;;;;;;5061647;27;88091;-54
2022/08/19 11:09:31;;;;;;;0.97;0.73;;;28.60;52.40;;;;;;5062773;27;90308;-52
2022/08/19 11:12:01;;;;;;;1.30;0.90;;;28.60;52.40;;;;;;5063137;27;88533;-52
2022/08/19 11:14:32;;;;;;;0.70;0.60;;;28.60;52.40;;;;;;5063366;27;87063;-52
2022/08/19 11:17:02;;;;;;;0.83;0.80;;;28.60;52.40;;;;;;5063582;27;86869;-53
2022/08/19 11:19:30;;;;;;;0.40;0.37;;;28.60;52.40;;;;;;5062243;27;89096;-51
2022/08/19 11:22:01;;;;;;;0.30;0.30;;;28.60;52.40;;;;;;5063094;27;89057;-52
2022/08/19 11:24:30;;;;;;;0.70;0.67;;;28.60;52.40;;;;;;5063497;27;87058;-53
2022/08/19 11:27:04;;;;;;;0.80;0.80;;;28.60;52.40;;;;;;5063747;27;86184;-51
2022/08/19 11:29:33;;;;;;;7.33;1.00;;;28.60;52.40;;;;;;5062999;27;89121;-51
2022/08/19 11:32:04;;;;;;;0.50;0.50;;;28.60;52.40;;;;;;5063026;27;88839;-52
2022/08/19 11:34:32;;;;;;;1.00;0.90;;;28.60;52.40;;;;;;5061881;27;88052;-51
2022/08/19 11:37:03;;;;;;;0.70;0.57;;;28.60;52.40;;;;;;5062367;27;87546;-51
2022/08/19 11:39:31;;;;;;;1.47;1.20;;;28.60;52.40;;;;;;5062810;27;89069;-52
2022/08/19 11:41:59;;;;;;;0.57;0.57;;;28.60;52.40;;;;;;5062906;27;88677;-52
2022/08/19 11:44:30;;;;;;;0.40;0.40;;;28.60;52.40;;;;;;5063102;27;86817;-52
2022/08/19 11:47:00;;;;;;;0.70;0.63;;;28.60;52.40;;;;;;5062916;27;87065;-53
2022/08/19 11:49:37;;;;;;;0.57;0.57;;;28.60;52.40;;;;;;5062679;27;88279;-52
2022/08/19 11:52:05;;;;;;;1.00;0.60;;;28.60;52.40;;;;;;5062542;27;87976;-53
2022/08/19 11:54:33;;;;;;;2.57;0.50;;;28.60;52.40;;;;;;5062627;27;86896;-52
2022/08/19 11:57:03;;;;;;;1.23;0.60;;;28.60;52.50;;;;;;5062342;27;86994;-53
2022/08/19 11:59:31;;;;;;;1.67;0.40;;;28.60;52.40;;;;;;5061445;27;90130;-52
2022/08/19 12:01:59;;;;;;;2.20;0.60;;;28.60;52.50;;;;;;5062304;27;88882;-52
2022/08/19 12:04:27;;;;;;;2.10;0.67;;;28.60;52.50;;;;;;5063074;27;87082;-52
2022/08/19 12:06:56;;;;;;;1.13;0.70;;;28.60;52.50;;;;;;5062166;27;87065;-53
2022/08/19 12:09:24;;;;;;;2.00;0.60;;;28.60;52.50;;;;;;5061513;27;89317;-51
2022/08/19 12:11:57;;;;;;;1.13;0.70;;;28.70;52.50;;;;;;5061609;27;87778;-52
2022/08/19 12:14:27;;;;;;;2.83;1.03;;;28.70;53.10;;;;;;5060677;27;87891;-53
2022/08/19 12:16:55;;;;;;;2.10;0.60;;;28.70;53.10;;;;;;5062710;27;86480;-52
2022/08/19 12:19:24;;;;;;;1.63;0.83;;;28.70;52.50;;;;;;5060954;27;89319;-52
2022/08/19 12:21:55;;;;;;;0.73;0.70;;;28.70;52.50;;;;;;5059804;27;88735;-53
2022/08/19 12:24:24;;;;;;;1.53;0.93;;;28.70;52.50;;;;;;5059761;27;88970;-52
2022/08/19 12:26:53;;;;;;;6.50;2.50;;;28.70;52.50;;;;;;5061442;27;87801;-52
2022/08/19 12:29:29;;;;;;;5.50;2.20;;;28.70;52.60;;;;;;5061228;27;87018;-51
2022/08/19 12:32:00;;;;;;;8.13;3.67;;;28.70;52.60;;;;;;5061674;27;91013;-52
2022/08/19 12:34:30;;;;;;;10.60;4.80;;;28.70;52.70;;;;;;5062606;27;86998;-52
2022/08/19 12:36:59;;;;;;;8.60;4.00;;;28.70;52.70;;;;;;5061466;27;87027;-52
2022/08/19 12:39:28;;;;;;;7.83;4.10;;;28.70;52.70;;;;;;5061523;27;89530;-52
2022/08/19 12:41:56;;;;;;;6.83;3.23;;;28.70;52.70;;;;;;5061538;27;87600;-52
2022/08/19 12:44:24;;;;;;;4.87;2.83;;;28.80;52.80;;;;;;5062042;27;86906;-52
2022/08/19 12:46:59;;;;;;;5.90;2.70;;;28.80;52.80;;;;;;5062373;27;87004;-52
2022/08/19 12:49:28;;;;;;;7.20;3.30;;;28.80;52.80;;;;;;5060196;27;90155;-52
2022/08/19 12:52:16;;;;;;;5.47;2.30;;;28.90;53.00;;;;;;5061692;27;88396;-52
2022/08/19 12:54:51;;;;;;;4.53;1.93;;;28.80;52.90;;;;;;5062251;27;87127;-52
2022/08/19 12:57:21;;;;;;;2.73;1.67;;;28.80;53.00;;;;;;5061631;27;87116;-52
2022/08/19 12:59:58;;;;;;;4.27;1.57;;;28.80;53.00;;;;;;5061724;27;89220;-53
2022/08/19 13:02:26;;;;;;;2.50;1.63;;;28.80;53.00;;;;;;5061512;27;87061;-52
2022/08/19 13:04:54;;;;;;;2.07;1.30;;;28.90;53.10;;;;;;5061813;27;87009;-51
2022/08/19 13:07:22;;;;;;;3.77;1.60;;;28.90;53.10;;;;;;5061501;27;86701;-52
2022/08/19 13:09:53;;;;;;;3.93;1.43;;;28.90;53.10;;;;;;5061216;27;89327;-52
2022/08/19 13:12:24;;;;;;;3.67;1.03;;;28.90;53.20;;;;;;5061386;27;87805;-53
2022/08/19 13:14:52;;;;;;;1.03;0.87;;;28.90;53.10;;;;;;5060621;27;88043;-52
2022/08/19 13:17:20;;;;;;;2.00;1.37;;;28.90;53.10;;;;;;5061217;27;87045;-53
2022/08/19 13:19:48;;;;;;;3.20;1.20;;;28.90;53.00;;;;;;5061371;27;89214;-52